Time;durP1;ratioP1;P1;durP2;ratioP2;P2;SDS_P1;SDS_P2;PMS_P1;PMS_P2;Temp;Humidity;BMP_temperature;BMP_pressure;BME280_temperature;BME280_humidity;BME280_pressure;Samples;Min_cycle;Max_cycle;Signal;HPM_P1;HPM_P2
2022/03/21 00:02:02;;;;;;;5.47;4.20;;;;;;;15.65;28.36;94695.31;4917847;29;20040;-93
2022/03/21 00:04:27;;;;;;;5.40;4.30;;;;;;;15.65;28.44;94698.78;4934464;29;20119;-92
2022/03/21 00:06:53;;;;;;;5.03;4.22;;;;;;;15.65;28.76;94700.75;4934870;29;20044;-93
2022/03/21 00:09:18;;;;;;;4.93;4.28;;;;;;;15.65;28.12;94690.59;4933860;28;20043;-92
2022/03/21 00:11:44;;;;;;;5.03;4.10;;;;;;;15.64;28.18;94693.78;4934349;29;20051;-94
2022/03/21 00:14:12;;;;;;;4.80;4.30;;;;;;;15.65;28.00;94695.31;4933714;28;20043;-93
2022/03/21 00:16:39;;;;;;;5.22;4.00;;;;;;;15.65;28.32;94690.59;4919346;29;20053;-91
2022/03/21 00:19:04;;;;;;;6.10;4.03;;;;;;;15.64;28.26;94696.50;4933822;28;20104;-93
2022/03/21 00:21:30;;;;;;;6.38;4.53;;;;;;;15.63;28.26;94697.72;4934372;29;20040;-93
2022/03/21 00:23:55;;;;;;;5.72;4.18;;;;;;;15.62;28.03;94690.78;4918304;29;20107;-93
2022/03/21 00:26:20;;;;;;;5.05;4.00;;;;;;;15.66;28.74;94694.84;4917907;29;20415;-92
2022/03/21 00:28:46;;;;;;;5.15;4.15;;;;;;;15.64;28.39;94691.06;4934352;29;20486;-93
2022/03/21 00:31:11;;;;;;;5.32;3.90;;;;;;;15.66;28.26;94697.56;4917359;29;20305;-93
2022/03/21 00:33:37;;;;;;;9.55;5.18;;;;;;;15.65;28.31;94698.78;4918272;29;20434;-93
2022/03/21 00:36:02;;;;;;;5.63;4.53;;;;;;;15.67;28.14;94699.06;4918011;29;20506;-92
2022/03/21 00:38:29;;;;;;;4.68;3.78;;;;;;;15.65;28.25;94689.84;4918629;29;20083;-93
2022/03/21 00:40:54;;;;;;;5.18;4.13;;;;;;;15.63;28.32;94698.47;4917909;29;20403;-93
2022/03/21 00:43:24;;;;;;;6.05;4.43;;;;;;;15.62;28.17;94696.97;4917810;29;20036;-92
2022/03/21 00:45:52;;;;;;;5.05;3.72;;;;;;;15.64;28.26;94691.81;4918575;29;20506;-92
2022/03/21 00:48:19;;;;;;;4.32;3.78;;;;;;;15.63;27.98;94695.75;4918067;28;20119;-93
2022/03/21 00:50:45;;;;;;;5.40;3.80;;;;;;;15.63;28.06;94692.28;4918146;29;20398;-92
2022/03/21 00:53:10;;;;;;;4.15;3.60;;;;;;;15.62;28.44;94696.97;4902031;28;20044;-92
2022/03/21 00:55:36;;;;;;;5.75;3.97;;;;;;;15.61;28.19;94689.25;4914520;29;20032;-93
2022/03/21 00:58:02;;;;;;;4.47;3.70;;;;;;;15.63;28.20;94684.09;4900705;29;20043;-93
2022/03/21 01:00:28;;;;;;;5.05;4.00;;;;;;;15.63;28.38;94684.84;4933787;29;20593;-92
2022/03/21 01:02:54;;;;;;;5.00;4.05;;;;;;;15.62;28.64;94685.31;4933417;29;20040;-92
2022/03/21 01:05:20;;;;;;;4.28;3.63;;;;;;;15.62;28.18;94679.88;4933300;28;20044;-93
2022/03/21 01:07:45;;;;;;;4.85;3.72;;;;;;;15.64;28.49;94671.97;4933559;29;20407;-93
2022/03/21 01:10:14;;;;;;;5.43;3.45;;;;;;;15.61;28.26;94683.81;4932325;28;20048;-92
2022/03/21 01:12:39;;;;;;;4.55;3.92;;;;;;;15.63;28.13;94678.66;4917479;29;20031;-92
2022/03/21 01:15:05;;;;;;;5.03;3.95;;;;;;;15.61;28.57;94668.22;4916730;29;20403;-93
2022/03/21 01:17:30;;;;;;;4.65;3.53;;;;;;;15.62;28.17;94680.63;4917980;29;20032;-93
2022/03/21 01:19:56;;;;;;;4.95;4.00;;;;;;;15.63;28.38;94675.94;4917641;29;20499;-92
2022/03/21 01:22:21;;;;;;;5.28;4.30;;;;;;;15.61;28.34;94679.09;4916918;29;20441;-93
2022/03/21 01:24:47;;;;;;;4.57;3.65;;;;;;;15.60;28.31;94661.25;4917583;29;20043;-92
2022/03/21 01:27:12;;;;;;;5.18;3.85;;;;;;;15.62;28.27;94675.16;4916938;29;20028;-93
2022/03/21 01:29:38;;;;;;;4.53;3.40;;;;;;;15.62;28.23;94666.25;4917588;29;20048;-92
2022/03/21 01:32:03;;;;;;;5.28;3.88;;;;;;;15.63;28.34;94682.13;4916230;29;20044;-93
2022/03/21 01:34:29;;;;;;;5.55;4.10;;;;;;;15.62;28.40;94668.97;4917381;29;20492;-92
2022/03/21 01:36:54;;;;;;;4.90;3.88;;;;;;;15.61;28.40;94665.47;4916964;29;20345;-93
2022/03/21 01:39:20;;;;;;;5.57;3.83;;;;;;;15.59;28.44;94665.19;4913513;29;20075;-92
2022/03/21 01:41:46;;;;;;;4.90;3.75;;;;;;;15.61;28.43;94659.28;4897622;29;20070;-94
2022/03/21 01:44:12;;;;;;;4.85;3.90;;;;;;;15.60;28.18;94655.03;4909459;29;20036;-92
2022/03/21 01:46:37;;;;;;;4.28;3.80;;;;;;;15.60;28.60;94657.75;4911709;29;20027;-93
2022/03/21 01:49:05;;;;;;;5.15;3.85;;;;;;;15.60;28.24;94663.22;4916742;29;20550;-93
2022/03/21 01:51:31;;;;;;;3.65;3.35;;;;;;;15.59;28.68;94673.38;4917231;29;20499;-93
2022/03/21 01:56:42;;;;;;;5.28;3.47;;;;;;;15.59;28.32;94664.47;4914368;29;20565;-92
2022/03/21 01:59:08;;;;;;;5.10;3.92;;;;;;;15.60;28.11;94676.84;4903234;29;20321;-92
2022/03/21 02:01:34;;;;;;;4.43;3.97;;;;;;;15.59;28.31;94675.38;4913683;29;20037;-92
2022/03/21 02:03:59;;;;;;;4.47;3.70;;;;;;;15.61;28.59;94668.22;4913063;29;20091;-93
2022/03/21 02:06:28;;;;;;;4.70;3.25;;;;;;;15.61;28.32;94662.75;4905112;29;20035;-92
2022/03/21 02:08:56;;;;;;;4.28;3.30;;;;;;;15.60;28.20;94655.03;4917032;29;20052;-93
2022/03/21 02:11:21;;;;;;;4.25;3.55;;;;;;;15.58;28.62;94660.97;4916185;29;20046;-93
2022/03/21 02:13:47;;;;;;;5.80;3.63;;;;;;;15.63;28.33;94665.78;4916490;29;20032;-92
2022/03/21 02:16:12;;;;;;;4.72;3.60;;;;;;;15.60;28.59;94665.94;4916020;29;20043;-93
2022/03/21 02:18:38;;;;;;;5.85;3.78;;;;;;;15.61;28.14;94676.38;4901439;29;20035;-93
2022/03/21 02:21:04;;;;;;;4.95;3.67;;;;;;;15.59;28.33;94656.28;4914899;29;20035;-93
2022/03/21 02:23:38;;;;;;;5.75;3.28;;;;;;;15.58;28.39;94655.53;4900499;29;20032;-92
2022/03/21 02:26:06;;;;;;;4.40;3.50;;;;;;;15.63;28.44;94652.16;4900068;29;20036;-93
2022/03/21 02:28:32;;;;;;;4.70;3.63;;;;;;;15.61;28.54;94654.56;4901277;29;20036;-93
2022/03/21 02:30:58;;;;;;;4.25;3.63;;;;;;;15.63;28.31;94660.31;4916684;29;20036;-93
2022/03/21 02:33:24;;;;;;;4.15;3.38;;;;;;;15.63;28.19;94654.88;4915207;29;20394;-93
2022/03/21 02:35:50;;;;;;;5.00;3.15;;;;;;;15.63;28.13;94649.41;4916046;29;20032;-94
2022/03/21 02:38:16;;;;;;;4.20;3.38;;;;;;;15.57;28.25;94648.56;4914287;29;20063;-93
2022/03/21 02:40:41;;;;;;;4.68;3.65;;;;;;;15.57;28.32;94656.00;4916650;29;20633;-95
2022/03/21 02:43:07;;;;;;;4.10;3.20;;;;;;;15.60;28.32;94647.63;4912413;29;20032;-92
2022/03/21 02:45:32;;;;;;;4.57;3.55;;;;;;;15.57;28.53;94650.53;4904484;29;20499;-93
2022/03/21 02:47:58;;;;;;;4.40;3.78;;;;;;;15.59;28.57;94651.56;4915551;29;20032;-93
2022/03/21 02:50:39;;;;;;;4.15;3.55;;;;;;;15.59;28.51;94643.38;4915693;29;20499;-93
2022/03/21 02:53:05;;;;;;;4.57;3.53;;;;;;;15.59;28.48;94651.56;4901067;29;20081;-93
2022/03/21 02:55:30;;;;;;;4.28;3.47;;;;;;;15.59;28.18;94650.84;4915904;29;20046;-93
2022/03/21 02:57:56;;;;;;;3.67;3.13;;;;;;;15.56;28.48;94649.03;4915845;29;20040;-92
2022/03/21 03:00:21;;;;;;;4.22;3.53;;;;;;;15.55;28.13;94645.50;4915454;29;20052;-93
2022/03/21 03:02:47;;;;;;;5.40;3.28;;;;;;;15.57;28.23;94647.81;4915808;29;20043;-92
2022/03/21 03:05:13;;;;;;;4.38;3.35;;;;;;;15.55;28.17;94645.50;4914887;29;20043;-92
2022/03/21 03:07:38;;;;;;;5.18;3.90;;;;;;;15.56;28.17;94654.47;4915837;29;20106;-92
2022/03/21 03:10:04;;;;;;;3.65;3.25;;;;;;;15.56;28.12;94654.47;4915260;29;20052;-93
2022/03/21 03:12:30;;;;;;;4.70;3.63;;;;;;;15.59;28.26;94653.56;4916439;29;20241;-92
2022/03/21 03:14:55;;;;;;;3.55;3.25;;;;;;;15.57;28.15;94648.56;4915660;29;20044;-91
2022/03/21 03:17:21;;;;;;;3.85;3.42;;;;;;;15.54;28.11;94648.69;4915166;29;20449;-92
2022/03/21 03:19:46;;;;;;;4.10;3.35;;;;;;;15.54;28.21;94645.97;4916020;29;20494;-92
2022/03/21 03:22:12;;;;;;;5.13;3.85;;;;;;;15.56;28.49;94649.78;4914826;29;20636;-91
2022/03/21 03:24:37;;;;;;;3.95;3.17;;;;;;;15.54;28.16;94648.69;4915919;29;20044;-93
2022/03/21 03:27:03;;;;;;;4.03;3.17;;;;;;;15.54;27.98;94643.25;4915142;29;20040;-94
2022/03/21 03:29:28;;;;;;;4.22;2.92;;;;;;;15.55;28.33;94642.78;4915253;29;20051;-93
2022/03/21 03:31:54;;;;;;;5.22;3.58;;;;;;;15.56;28.17;94638.13;4916115;29;20219;-93
2022/03/21 03:34:19;;;;;;;4.57;3.80;;;;;;;15.54;28.28;94643.25;4919301;29;20043;-92
2022/03/21 03:36:45;;;;;;;5.47;3.55;;;;;;;15.56;28.23;94649.78;4919435;29;20105;-92
2022/03/21 03:39:11;;;;;;;6.00;3.33;;;;;;;15.54;28.29;94644.00;4915731;29;20044;-93
2022/03/21 03:41:37;;;;;;;4.05;3.40;;;;;;;15.56;28.41;94635.41;4900407;29;20040;-92
2022/03/21 03:44:02;;;;;;;4.35;3.65;;;;;;;15.55;28.41;94642.03;4911013;29;20437;-93
2022/03/21 03:46:28;;;;;;;5.10;3.30;;;;;;;15.56;28.56;94644.34;4919185;29;20128;-92
2022/03/21 03:48:54;;;;;;;4.20;3.17;;;;;;;15.55;28.23;94642.78;4919104;29;20044;-93
2022/03/21 03:51:19;;;;;;;4.00;3.38;;;;;;;15.53;28.07;94637.03;4903096;28;20071;-93
2022/03/21 03:53:45;;;;;;;4.15;3.70;;;;;;;15.53;28.34;94647.19;4918914;29;20044;-93
2022/03/21 03:56:10;;;;;;;3.60;2.92;;;;;;;15.54;28.15;94648.69;4918118;28;20688;-93
2022/03/21 03:58:36;;;;;;;3.63;3.08;;;;;;;15.58;28.26;94650.06;4918535;29;20406;-92
2022/03/21 04:01:04;;;;;;;4.07;3.40;;;;;;;15.59;28.29;94648.09;4918901;29;20036;-92
2022/03/21 04:03:45;;;;;;;4.00;3.15;;;;;;;15.54;28.27;94648.69;4903830;29;20114;-92
2022/03/21 04:06:16;;;;;;;4.97;3.25;;;;;;;15.56;28.02;94649.78;4921890;29;20118;-92
2022/03/21 04:08:42;;;;;;;4.68;3.38;;;;;;;15.52;28.49;94646.44;4919308;29;20043;-93
2022/03/21 04:11:07;;;;;;;3.95;3.38;;;;;;;15.53;28.29;94652.66;4918425;28;20102;-91
2022/03/21 04:13:33;;;;;;;3.75;2.90;;;;;;;15.51;28.05;94652.34;4903386;29;20531;-92
2022/03/21 04:15:58;;;;;;;5.35;3.60;;;;;;;15.51;28.18;94653.09;4902562;29;20036;-93
2022/03/21 04:18:25;;;;;;;3.78;2.92;;;;;;;15.52;28.22;94648.41;4902650;28;20094;-94
2022/03/21 04:20:51;;;;;;;4.38;3.58;;;;;;;15.49;28.46;94658.25;4918860;29;20587;-93
2022/03/21 04:23:17;;;;;;;4.55;3.05;;;;;;;15.52;28.20;94654.63;4918220;29;20063;-93
2022/03/21 04:25:43;;;;;;;5.05;3.80;;;;;;;15.51;28.17;94661.28;4918910;29;20044;-93
2022/03/21 04:28:09;;;;;;;3.50;3.10;;;;;;;15.51;28.17;94655.06;4918069;29;20043;-94
2022/03/21 04:30:35;;;;;;;3.67;3.00;;;;;;;15.50;28.35;94665.22;4918821;29;20063;-93
2022/03/21 04:33:01;;;;;;;5.15;3.05;;;;;;;15.51;28.08;94666.72;4918667;29;20361;-93
2022/03/21 04:35:26;;;;;;;4.22;3.42;;;;;;;15.56;28.30;94668.84;4901749;29;20043;-92
2022/03/21 04:37:52;;;;;;;3.67;2.95;;;;;;;15.53;28.24;94658.84;4902671;29;20032;-92
2022/03/21 04:40:17;;;;;;;3.25;2.95;;;;;;;15.52;28.14;94662.03;4904229;29;20446;-92
2022/03/21 04:42:43;;;;;;;4.07;3.38;;;;;;;15.54;28.22;94659.59;4918137;29;20054;-95
2022/03/21 04:45:08;;;;;;;5.22;3.45;;;;;;;15.52;28.30;94667.47;4901118;28;20447;-93
2022/03/21 04:47:34;;;;;;;4.80;3.65;;;;;;;15.51;28.10;94671.41;4918453;29;20066;-91
2022/03/21 04:49:59;;;;;;;4.93;3.40;;;;;;;15.50;28.41;94667.19;4918041;29;20040;-93
2022/03/21 04:52:25;;;;;;;3.92;3.15;;;;;;;15.52;28.27;94670.97;4918051;29;20063;-92
2022/03/21 04:54:50;;;;;;;3.30;3.00;;;;;;;15.53;28.37;94671.72;4917661;29;20482;-93
2022/03/21 04:57:22;;;;;;;4.95;2.97;;;;;;;15.53;28.25;94671.72;4917676;29;20099;-93
2022/03/21 04:59:47;;;;;;;3.72;2.70;;;;;;;15.50;28.19;94678.84;4917643;29;20036;-90
2022/03/21 05:02:13;;;;;;;3.60;2.95;;;;;;;15.50;27.99;94670.66;4915029;29;20059;-94
2022/03/21 05:04:39;;;;;;;4.90;3.30;;;;;;;15.49;28.24;94677.34;4916416;29;20035;-94
2022/03/21 05:07:06;;;;;;;3.95;3.42;;;;;;;15.49;28.43;94685.50;4913517;29;20052;-94
2022/03/21 05:09:31;;;;;;;3.45;2.92;;;;;;;15.50;28.10;94686.25;4899437;29;20139;-94
2022/03/21 05:11:57;;;;;;;4.18;3.15;;;;;;;15.50;28.10;94687.03;4917096;29;20099;-91
2022/03/21 05:14:24;;;;;;;3.83;3.38;;;;;;;15.52;28.11;94694.72;4917367;28;20044;-91
2022/03/21 05:16:50;;;;;;;4.35;3.42;;;;;;;15.50;28.15;94695.19;4918122;29;20039;-91
2022/03/21 05:19:15;;;;;;;3.78;3.38;;;;;;;15.49;28.10;94693.69;4916054;29;20082;-93
2022/03/21 05:21:41;;;;;;;4.47;3.38;;;;;;;15.51;28.20;94702.16;4902250;29;20048;-91
2022/03/21 05:32:25;;;;;;;31.05;15.15;;;;;;;15.47;25.04;94709.75;4918929;29;20091;-90
2022/03/21 05:37:34;;;;;;;41.95;26.95;;;;;;;15.42;24.60;94700.22;4907200;28;20096;-90
2022/03/21 05:43:17;;;;;;;22.75;14.70;;;;;;;15.54;25.64;94714.09;4928752;29;20057;-92
2022/03/21 05:45:43;;;;;;;16.48;10.32;;;;;;;15.55;26.37;94710.16;4935349;29;20047;-91
2022/03/21 05:51:05;;;;;;;50.10;14.77;;;;;;;15.56;26.87;94714.44;4923453;29;20170;-94
2022/03/21 05:53:30;;;;;;;33.92;11.02;;;;;;;15.55;26.72;94707.44;4910231;29;20185;-92
2022/03/21 05:56:00;;;;;;;117.13;58.90;;;;;;;15.54;27.36;94709.41;4897436;29;20044;-93
2022/03/21 05:58:28;;;;;;;21.88;10.32;;;;;;;15.40;22.98;94710.81;4917738;28;20074;-91
2022/03/21 06:00:55;;;;;;;23.05;7.30;;;;;;;15.17;21.26;94711.47;4920054;29;20036;-90
2022/03/21 06:03:21;;;;;;;23.10;8.52;;;;;;;15.10;20.00;94711.81;4919660;29;20075;-92
2022/03/21 06:05:49;;;;;;;59.75;12.20;;;;;;;15.03;19.63;94721.06;4923958;29;20070;-91
2022/03/21 06:08:14;;;;;;;61.92;11.43;;;;;;;14.93;19.48;94719.56;4931997;28;20051;-93
2022/03/21 06:10:40;;;;;;;76.15;15.75;;;;;;;15.04;19.49;94711.69;4903224;29;20047;-94
2022/03/21 06:13:07;;;;;;;60.97;12.13;;;;;;;15.04;19.45;94717.13;4903059;29;20115;-88
2022/03/21 06:15:33;;;;;;;64.70;12.25;;;;;;;15.10;20.09;94722.72;4904340;29;20122;-88
2022/03/21 06:17:59;;;;;;;30.55;11.65;;;;;;;15.06;19.91;94724.84;4909000;29;20498;-89
2022/03/21 06:20:25;;;;;;;23.67;9.52;;;;;;;15.00;19.41;94713.03;4929495;29;20070;-93
2022/03/21 06:22:50;;;;;;;41.33;16.52;;;;;;;14.97;19.05;94728.31;4899344;29;20067;-93
2022/03/21 06:25:16;;;;;;;55.45;20.02;;;;;;;14.81;19.55;94725.94;4897319;29;20036;-92
2022/03/21 06:27:42;;;;;;;58.80;23.45;;;;;;;14.78;18.50;94720.63;4893026;29;20047;-91
2022/03/21 06:30:09;;;;;;;73.95;29.38;;;;;;;14.83;18.75;94725.47;4926217;29;20044;-91
2022/03/21 06:32:35;;;;;;;117.15;38.20;;;;;;;14.90;19.14;94736.81;4935262;29;20039;-91
2022/03/21 06:35:01;;;;;;;115.13;39.78;;;;;;;15.01;19.14;94737.09;4913652;29;20067;-90
2022/03/21 06:37:52;;;;;;;123.20;45.17;;;;;;;15.05;19.37;94734.97;4910082;29;20116;-94
2022/03/21 06:40:20;;;;;;;143.23;52.55;;;;;;;15.17;20.24;94736.00;4927210;29;20051;-90
2022/03/21 06:42:52;;;;;;;149.95;53.65;;;;;;;15.21;20.55;94744.78;4939495;29;20063;-94
2022/03/21 06:50:20;;;;;;;141.85;57.25;;;;;;;15.36;21.56;94753.06;4932087;28;20044;-91
2022/03/21 06:52:47;;;;;;;112.72;49.63;;;;;;;15.38;21.66;94745.19;4922648;29;20043;-92
2022/03/21 06:55:14;;;;;;;113.60;44.05;;;;;;;15.44;22.35;94751.53;4923627;29;20039;-92
2022/03/21 06:57:45;;;;;;;95.97;42.33;;;;;;;15.47;22.29;94758.03;4920140;29;20406;-91
2022/03/21 07:00:40;;;;;;;;;;;;;;;15.50;23.03;94752.41;4924217;29;20063;-94
2022/03/21 07:03:08;;;;;;;174.15;84.10;;;;;;;15.55;23.04;94751.06;4892858;29;19927;-95
2022/03/21 07:05:36;;;;;;;116.75;61.50;;;;;;;15.60;22.52;94761.34;4880417;29;20097;-88
2022/03/21 07:08:04;;;;;;;190.73;63.53;;;;;;;15.61;22.76;94763.59;4859997;29;20068;-90
2022/03/21 07:10:34;;;;;;;124.75;57.58;;;;;;;15.62;23.06;94765.13;4866364;29;20067;-89
2022/03/21 07:13:03;;;;;;;133.07;56.55;;;;;;;15.67;23.69;94761.78;4863180;29;20052;-90
2022/03/21 07:15:29;;;;;;;120.25;43.63;;;;;;;15.66;21.83;94765.72;4862929;29;20037;-88
2022/03/21 07:17:58;;;;;;;73.60;28.48;;;;;;;15.57;22.95;94762.28;4860074;29;20891;-86
2022/03/21 07:20:27;;;;;;;97.05;33.47;;;;;;;15.60;21.32;94766.78;4858993;29;20048;-87
2022/03/21 07:22:54;;;;;;;181.00;110.30;;;;;;;15.62;22.10;94765.13;4844171;29;20045;-87
2022/03/21 07:25:20;;;;;;;123.15;64.07;;;;;;;15.69;22.81;94772.22;4858371;29;20901;-91
2022/03/21 07:27:46;;;;;;;87.40;40.22;;;;;;;15.76;21.84;94769.19;4877550;29;20073;-89
2022/03/21 07:30:12;;;;;;;98.30;35.95;;;;;;;15.83;21.84;94765.34;4877636;29;20189;-88
2022/03/21 07:32:39;;;;;;;94.15;40.88;;;;;;;15.79;21.98;94770.22;4860773;29;20124;-87
2022/03/21 07:35:07;;;;;;;104.95;43.90;;;;;;;15.81;23.01;94765.03;4843029;29;20045;-89
2022/03/21 07:37:42;;;;;;;66.22;34.85;;;;;;;15.81;22.54;94770.50;4871775;29;20115;-89
2022/03/21 07:40:10;;;;;;;81.20;32.97;;;;;;;15.82;22.57;94778.22;4890917;29;20048;-90
2022/03/21 07:42:41;;;;;;;80.50;33.78;;;;;;;15.86;22.47;94775.34;4918392;29;20151;-89
2022/03/21 07:47:51;;;;;;;94.93;36.25;;;;;;;15.85;23.13;94785.47;4899206;29;20071;-88
2022/03/21 07:50:18;;;;;;;72.88;31.30;;;;;;;15.89;24.05;94786.06;4877908;29;20510;-92
2022/03/21 07:52:43;;;;;;;62.08;31.40;;;;;;;15.92;23.32;94787.88;4896895;29;20476;-89
2022/03/21 07:55:09;;;;;;;78.03;32.88;;;;;;;15.89;23.02;94780.63;4904759;29;20510;-89
2022/03/21 07:57:34;;;;;;;84.15;36.22;;;;;;;15.92;23.30;94782.44;4910103;29;20522;-89
2022/03/21 08:00:00;;;;;;;98.55;40.05;;;;;;;15.92;23.29;94782.44;4914376;29;20044;-86
2022/03/21 08:02:27;;;;;;;93.75;40.42;;;;;;;15.96;23.52;94793.94;4934632;28;20039;-86
2022/03/21 08:04:52;;;;;;;81.05;38.33;;;;;;;16.01;23.31;94787.09;4898878;29;20042;-88
2022/03/21 08:07:17;;;;;;;105.47;42.38;;;;;;;16.02;23.44;94807.72;4934889;29;20070;-89
2022/03/21 08:09:47;;;;;;;102.18;39.58;;;;;;;16.01;23.70;94809.69;4919382;29;20036;-89
2022/03/21 08:12:12;;;;;;;155.65;52.67;;;;;;;16.03;23.61;94814.66;4931788;29;20108;-89
2022/03/21 08:14:38;;;;;;;126.00;42.83;;;;;;;15.99;23.76;94811.34;4912521;29;20127;-90
2022/03/21 08:17:04;;;;;;;146.88;49.90;;;;;;;16.03;23.49;94811.91;4912720;29;20516;-90
2022/03/21 08:19:29;;;;;;;105.07;40.92;;;;;;;16.02;23.59;94818.63;4902073;29;20087;-90
2022/03/21 08:21:55;;;;;;;102.47;38.88;;;;;;;16.01;22.75;94823.31;4917185;29;20107;-91
2022/03/21 08:24:23;;;;;;;97.00;37.25;;;;;;;15.99;23.11;94812.09;4917616;29;20040;-90
2022/03/21 08:26:50;;;;;;;153.73;64.57;;;;;;;16.00;24.11;94821.06;4918490;29;20114;-91
2022/03/21 08:29:15;;;;;;;281.42;124.43;;;;;;;16.03;23.58;94820.09;4915489;29;20775;-89
2022/03/21 08:31:41;;;;;;;266.77;126.32;;;;;;;16.06;23.92;94811.00;4932941;29;20044;-90
2022/03/21 08:34:07;;;;;;;256.23;127.13;;;;;;;16.05;23.88;94817.66;4915436;29;20040;-89
2022/03/21 08:36:32;;;;;;;234.63;108.25;;;;;;;16.07;23.50;94818.72;4933375;28;20410;-90
2022/03/21 08:38:59;;;;;;;260.25;119.10;;;;;;;16.06;23.79;94819.94;4919368;29;20510;-90
2022/03/21 08:41:25;;;;;;;201.15;90.70;;;;;;;16.08;23.46;94822.22;4910736;29;20054;-87
2022/03/21 08:43:51;;;;;;;211.93;96.97;;;;;;;16.09;23.89;94812.81;4915890;29;20051;-92
2022/03/21 08:46:17;;;;;;;338.17;114.32;;;;;;;16.08;23.88;94822.22;4939060;29;20042;-91
2022/03/21 08:51:37;;;;;;;176.55;83.78;;;;;;;16.11;22.92;94822.03;4928325;29;20047;-91
2022/03/21 08:54:04;;;;;;;121.57;59.80;;;;;;;16.02;21.28;94819.34;4954031;28;20052;-89
2022/03/21 08:56:36;;;;;;;79.45;37.00;;;;;;;15.92;19.95;94811.69;4927160;29;20035;-93
2022/03/21 08:59:02;;;;;;;68.28;33.10;;;;;;;15.89;20.27;94813.34;4909285;29;20032;-91
2022/03/21 09:01:29;;;;;;;77.05;35.03;;;;;;;15.87;19.48;94807.59;4920285;29;20042;-94
2022/03/21 09:04:00;;;;;;;76.68;35.03;;;;;;;15.87;19.26;94804.13;4907928;29;20044;-90
2022/03/21 09:06:27;;;;;;;92.88;40.65;;;;;;;15.88;19.50;94808.34;4935452;29;20173;-92
2022/03/21 09:08:54;;;;;;;102.00;42.95;;;;;;;15.93;21.13;94810.47;4923699;29;20039;-92
2022/03/21 09:11:19;;;;;;;159.15;67.13;;;;;;;15.97;20.50;94814.53;4934672;28;20119;-91
2022/03/21 09:13:45;;;;;;;158.93;68.85;;;;;;;15.98;20.40;94816.06;4923197;29;20046;-92
2022/03/21 09:16:13;;;;;;;210.27;87.90;;;;;;;15.98;21.50;94813.31;4914408;29;20036;-93
2022/03/21 09:18:40;;;;;;;179.80;80.22;;;;;;;15.99;21.35;94825.75;4917736;29;20048;-93
2022/03/21 09:21:09;;;;;;;195.63;86.32;;;;;;;16.00;21.79;94816.34;4906882;29;20054;-90
2022/03/21 09:23:35;;;;;;;181.13;83.82;;;;;;;16.02;22.07;94819.34;4920400;29;20051;-92
2022/03/21 09:26:01;;;;;;;184.15;87.90;;;;;;;16.05;22.15;94814.94;4923829;29;20036;-90
2022/03/21 09:28:28;;;;;;;162.88;76.88;;;;;;;16.06;23.52;94817.22;4920749;29;20091;-91
2022/03/21 09:30:54;;;;;;;183.13;87.28;;;;;;;16.09;22.44;94815.53;4901086;29;20035;-89
2022/03/21 09:33:20;;;;;;;169.95;81.82;;;;;;;16.09;22.53;94818.25;4901637;29;20048;-90
2022/03/21 09:35:51;;;;;;;167.57;79.78;;;;;;;16.11;22.66;94826.75;4920078;29;20055;-89
2022/03/21 09:38:26;;;;;;;164.30;76.40;;;;;;;16.13;22.63;94818.09;4920184;29;20706;-90
2022/03/21 09:40:51;;;;;;;143.25;70.68;;;;;;;16.15;22.74;94805.50;4921515;29;20077;-89
2022/03/21 09:43:17;;;;;;;150.38;72.47;;;;;;;16.17;22.65;94807.78;4909655;29;20478;-89
2022/03/21 09:45:44;;;;;;;146.38;70.00;;;;;;;16.18;22.86;94812.03;4921346;29;20147;-91
2022/03/21 09:48:12;;;;;;;143.65;69.43;;;;;;;16.17;23.35;94816.72;4917341;28;20078;-88
2022/03/21 09:50:42;;;;;;;136.10;67.80;;;;;;;16.20;22.56;94812.31;4903424;29;20039;-88
2022/03/21 09:53:10;;;;;;;136.27;66.15;;;;;;;16.16;22.71;94812.47;4918146;28;20054;-87
2022/03/21 09:55:36;;;;;;;136.73;60.95;;;;;;;16.19;23.28;94822.47;4937866;29;20051;-90
2022/03/21 09:58:02;;;;;;;130.35;61.97;;;;;;;16.19;22.86;94825.22;4927050;29;20039;-90
2022/03/21 10:00:29;;;;;;;92.85;48.35;;;;;;;16.19;21.63;94827.94;4901837;29;20493;-91
2022/03/21 10:02:57;;;;;;;71.85;38.40;;;;;;;16.17;20.72;94818.69;4933705;29;20047;-88
2022/03/21 10:05:36;;;;;;;81.05;31.63;;;;;;;16.05;19.48;94820.41;4917266;29;20527;-88
2022/03/21 10:08:21;;;;;;;58.22;25.70;;;;;;;15.99;19.56;94823.03;4901283;29;20054;-89
2022/03/21 10:10:58;;;;;;;51.60;22.13;;;;;;;15.92;18.95;94823.34;4932202;29;20111;-89
2022/03/21 10:13:33;;;;;;;44.83;19.13;;;;;;;15.87;18.57;94823.97;4924677;29;20064;-85
2022/03/21 10:16:12;;;;;;;35.05;19.35;;;;;;;15.90;18.64;94814.84;4938410;29;20051;-85
2022/03/21 10:18:38;;;;;;;45.85;17.85;;;;;;;15.86;18.28;94816.22;4924930;29;20047;-85
2022/03/21 10:21:13;;;;;;;48.53;17.73;;;;;;;15.88;18.73;94822.75;4921751;29;20052;-86
2022/03/21 10:23:39;;;;;;;57.63;20.35;;;;;;;15.89;18.80;94816.06;4923468;29;20044;-86
2022/03/21 10:26:25;;;;;;;1156.22;151.38;;;;;;;15.93;17.68;94815.91;4923601;29;20046;-85
2022/03/21 10:28:52;;;;;;;778.67;101.22;;;;;;;15.86;17.25;94814.25;4920545;29;20277;-86
2022/03/21 10:31:32;;;;;;;487.08;58.55;;;;;;;15.85;16.92;94817.44;4914529;29;20044;-87
2022/03/21 10:34:01;;;;;;;210.07;28.60;;;;;;;15.86;18.73;94813.50;4911274;29;20159;-87
2022/03/21 10:36:26;;;;;;;93.75;19.77;;;;;;;15.86;17.46;94806.09;4939485;29;20036;-86
2022/03/21 10:39:06;;;;;;;80.85;19.83;;;;;;;15.85;17.27;94818.19;4919714;29;20445;-89
2022/03/21 10:41:36;;;;;;;78.88;20.13;;;;;;;15.86;18.80;94814.25;4899927;29;20100;-85
2022/03/21 10:44:02;;;;;;;87.68;23.05;;;;;;;15.88;18.81;94811.84;4915840;29;20106;-90
2022/03/21 10:46:27;;;;;;;90.88;23.83;;;;;;;15.90;18.87;94811.38;4922231;29;20122;-86
2022/03/21 10:49:13;;;;;;;62.63;19.92;;;;;;;15.96;19.16;94807.56;4918204;29;20055;-84
2022/03/21 10:51:49;;;;;;;109.63;27.50;;;;;;;15.97;18.84;94809.09;4926671;29;20397;-85
2022/03/21 10:54:40;;;;;;;85.10;25.17;;;;;;;15.95;19.67;94808.78;4926280;29;20036;-89
2022/03/21 10:57:26;;;;;;;110.63;27.08;;;;;;;15.98;19.82;94813.31;4942875;28;20127;-90
2022/03/21 10:59:52;;;;;;;92.95;27.45;;;;;;;16.00;19.32;94805.44;4903656;29;20144;-86
2022/03/21 11:02:18;;;;;;;128.82;29.05;;;;;;;16.01;19.60;94798.78;4927715;29;20054;-86
2022/03/21 11:04:44;;;;;;;101.40;27.30;;;;;;;16.04;19.51;94800.56;4931384;29;20410;-91
2022/03/21 11:07:11;;;;;;;99.50;26.50;;;;;;;16.04;19.55;94799.78;4929854;29;20127;-86
2022/03/21 11:09:38;;;;;;;87.47;24.42;;;;;;;16.02;19.67;94802.97;4913596;29;20035;-87
2022/03/21 11:12:04;;;;;;;75.68;24.60;;;;;;;16.02;19.81;94797.53;4911191;29;20044;-86
2022/03/21 11:14:30;;;;;;;69.05;24.23;;;;;;;16.04;20.10;94802.53;4913015;29;20039;-88
2022/03/21 11:16:58;;;;;;;75.22;25.02;;;;;;;16.03;20.17;94796.31;4930333;29;20040;-86
2022/03/21 11:19:26;;;;;;;67.88;22.08;;;;;;;16.06;20.03;94805.53;4915281;29;20035;-87
2022/03/21 11:21:51;;;;;;;70.20;21.60;;;;;;;16.08;20.09;94798.41;4915536;29;20073;-86
2022/03/21 11:24:17;;;;;;;53.00;20.40;;;;;;;16.06;20.10;94789.94;4915290;28;20162;-87
2022/03/21 11:26:53;;;;;;;48.67;19.95;;;;;;;16.07;20.31;94802.34;4914572;29;20107;-88
2022/03/21 11:29:30;;;;;;;46.33;20.60;;;;;;;16.08;20.25;94786.75;4927590;29;20581;-85
2022/03/21 11:32:21;;;;;;;46.40;19.50;;;;;;;16.08;20.36;94795.69;4926017;29;20059;-85
2022/03/21 11:35:12;;;;;;;471.92;325.00;;;;;;;16.14;21.16;94792.34;4903698;29;20063;-90
2022/03/21 11:37:39;;;;;;;49.10;19.42;;;;;;;16.11;20.30;94792.03;4931486;29;20149;-89
2022/03/21 11:40:26;;;;;;;127.35;68.55;;;;;;;16.18;21.53;94790.97;4931023;29;20052;-90
2022/03/21 11:42:52;;;;;;;34.03;15.98;;;;;;;16.20;21.34;94785.03;4935486;29;20044;-91
2022/03/21 11:45:24;;;;;;;37.90;17.88;;;;;;;16.23;21.39;94784.13;4900958;29;20036;-89
2022/03/21 11:48:01;;;;;;;70.57;28.30;;;;;;;16.22;21.46;94788.81;4904995;29;20047;-85
2022/03/21 11:50:27;;;;;;;71.82;23.55;;;;;;;16.21;21.18;94787.31;4897917;29;20050;-87
2022/03/21 11:53:08;;;;;;;48.30;12.07;;;;;;;16.13;18.94;94785.38;4918479;29;20119;-85
2022/03/21 11:55:43;;;;;;;;;;;;;;;15.74;19.92;94779.78;4939375;29;20043;-84
2022/03/21 11:58:37;;;;;;;40.10;13.20;;;;;;;15.67;19.21;94782.81;4922134;29;19996;-85